sensor_id;sensor_type;location;lat;lon;timestamp;temperature;humidity
18773;DHT22;9515;50.810;4.418;2022-07-21T00:01:16;21.40;99.90
18773;DHT22;9515;50.810;4.418;2022-07-21T00:03:42;21.40;99.90
18773;DHT22;9515;50.810;4.418;2022-07-21T00:06:08;21.40;99.90
18773;DHT22;9515;50.810;4.418;2022-07-21T00:08:34;21.50;99.90
18773;DHT22;9515;50.810;4.418;2022-07-21T00:11:00;21.40;99.90
18773;DHT22;9515;50.810;4.418;2022-07-21T00:13:25;21.40;99.90
18773;DHT22;9515;50.810;4.418;2022-07-21T00:15:51;21.30;99.90
18773;DHT22;9515;50.810;4.418;2022-07-21T00:18:18;21.40;99.90
18773;DHT22;9515;50.810;4.418;2022-07-21T00:20:44;21.40;99.90
18773;DHT22;9515;50.810;4.418;2022-07-21T00:23:09;21.60;99.90
18773;DHT22;9515;50.810;4.418;2022-07-21T00:25:35;21.50;99.90
18773;DHT22;9515;50.810;4.418;2022-07-21T00:28:02;21.40;99.90
18773;DHT22;9515;50.810;4.418;2022-07-21T00:30:28;21.20;99.90
18773;DHT22;9515;50.810;4.418;2022-07-21T00:32:54;21.40;99.90
18773;DHT22;9515;50.810;4.418;2022-07-21T00:35:20;21.30;99.90
18773;DHT22;9515;50.810;4.418;2022-07-21T00:37:45;21.20;99.90
18773;DHT22;9515;50.810;4.418;2022-07-21T00:40:12;21.00;99.90
18773;DHT22;9515;50.810;4.418;2022-07-21T00:42:39;21.10;99.90
18773;DHT22;9515;50.810;4.418;2022-07-21T00:45:06;21.00;99.90
18773;DHT22;9515;50.810;4.418;2022-07-21T00:47:33;20.90;99.90
18773;DHT22;9515;50.810;4.418;2022-07-21T00:50:00;20.80;99.90
18773;DHT22;9515;50.810;4.418;2022-07-21T00:52:27;20.90;99.90
18773;DHT22;9515;50.810;4.418;2022-07-21T00:54:52;21.10;99.90
18773;DHT22;9515;50.810;4.418;2022-07-21T00:57:18;20.90;99.90
18773;DHT22;9515;50.810;4.418;2022-07-21T00:59:45;21.10;99.90
18773;DHT22;9515;50.810;4.418;2022-07-21T01:02:11;21.10;99.90
18773;DHT22;9515;50.810;4.418;2022-07-21T01:04:37;21.30;99.90
18773;DHT22;9515;50.810;4.418;2022-07-21T01:07:04;21.30;99.90
18773;DHT22;9515;50.810;4.418;2022-07-21T01:09:32;21.40;99.90
18773;DHT22;9515;50.810;4.418;2022-07-21T01:11:58;21.40;99.90
18773;DHT22;9515;50.810;4.418;2022-07-21T01:14:24;21.20;99.90
18773;DHT22;9515;50.810;4.418;2022-07-21T01:16:51;21.20;99.90
18773;DHT22;9515;50.810;4.418;2022-07-21T01:19:17;21.20;99.90
18773;DHT22;9515;50.810;4.418;2022-07-21T01:21:45;21.30;99.90
18773;DHT22;9515;50.810;4.418;2022-07-21T01:24:12;21.40;99.90
18773;DHT22;9515;50.810;4.418;2022-07-21T01:26:42;21.40;99.90
18773;DHT22;9515;50.810;4.418;2022-07-21T01:29:08;21.40;99.90
18773;DHT22;9515;50.810;4.418;2022-07-21T01:31:36;21.40;99.90
18773;DHT22;9515;50.810;4.418;2022-07-21T01:34:02;21.30;99.90
18773;DHT22;9515;50.810;4.418;2022-07-21T01:36:27;21.30;99.90
18773;DHT22;9515;50.810;4.418;2022-07-21T01:38:53;21.30;99.90
18773;DHT22;9515;50.810;4.418;2022-07-21T01:41:37;21.30;99.90
18773;DHT22;9515;50.810;4.418;2022-07-21T01:44:05;21.40;99.90
18773;DHT22;9515;50.810;4.418;2022-07-21T01:46:35;21.30;99.90
18773;DHT22;9515;50.810;4.418;2022-07-21T01:49:01;21.20;99.90
18773;DHT22;9515;50.810;4.418;2022-07-21T01:51:27;21.00;99.90
18773;DHT22;9515;50.810;4.418;2022-07-21T01:53:53;21.00;99.90
18773;DHT22;9515;50.810;4.418;2022-07-21T01:56:20;21.20;99.90
18773;DHT22;9515;50.810;4.418;2022-07-21T01:58:46;21.10;99.90
18773;DHT22;9515;50.810;4.418;2022-07-21T02:01:12;21.10;99.90
18773;DHT22;9515;50.810;4.418;2022-07-21T02:03:39;21.10;99.90
18773;DHT22;9515;50.810;4.418;2022-07-21T02:06:05;21.20;99.90
18773;DHT22;9515;50.810;4.418;2022-07-21T02:08:32;21.20;99.90
18773;DHT22;9515;50.810;4.418;2022-07-21T02:10:58;21.20;99.90
18773;DHT22;9515;50.810;4.418;2022-07-21T02:13:24;21.30;99.90
18773;DHT22;9515;50.810;4.418;2022-07-21T02:15:50;21.30;99.90
18773;DHT22;9515;50.810;4.418;2022-07-21T02:18:15;21.30;99.90
18773;DHT22;9515;50.810;4.418;2022-07-21T02:20:41;21.30;99.90
18773;DHT22;9515;50.810;4.418;2022-07-21T02:23:07;21.20;99.90
18773;DHT22;9515;50.810;4.418;2022-07-21T02:25:32;21.20;99.90
18773;DHT22;9515;50.810;4.418;2022-07-21T02:27:58;21.20;99.90
18773;DHT22;9515;50.810;4.418;2022-07-21T02:30:24;21.20;99.90
18773;DHT22;9515;50.810;4.418;2022-07-21T02:32:49;21.30;99.90
18773;DHT22;9515;50.810;4.418;2022-07-21T02:35:15;21.20;99.90
18773;DHT22;9515;50.810;4.418;2022-07-21T02:37:41;21.40;99.90
18773;DHT22;9515;50.810;4.418;2022-07-21T02:40:07;21.30;99.90
18773;DHT22;9515;50.810;4.418;2022-07-21T02:42:33;21.40;99.90
18773;DHT22;9515;50.810;4.418;2022-07-21T02:44:58;21.20;99.90
18773;DHT22;9515;50.810;4.418;2022-07-21T02:47:24;21.20;99.90
18773;DHT22;9515;50.810;4.418;2022-07-21T02:49:50;21.30;99.90
18773;DHT22;9515;50.810;4.418;2022-07-21T02:52:15;21.40;99.90
18773;DHT22;9515;50.810;4.418;2022-07-21T02:54:41;21.30;99.90
18773;DHT22;9515;50.810;4.418;2022-07-21T02:57:07;21.20;99.90
18773;DHT22;9515;50.810;4.418;2022-07-21T02:59:32;21.00;99.90
18773;DHT22;9515;50.810;4.418;2022-07-21T03:01:58;21.00;99.90
18773;DHT22;9515;50.810;4.418;2022-07-21T03:04:24;20.80;99.90
18773;DHT22;9515;50.810;4.418;2022-07-21T03:06:49;20.90;99.90
18773;DHT22;9515;50.810;4.418;2022-07-21T03:09:15;21.00;99.90
18773;DHT22;9515;50.810;4.418;2022-07-21T03:11:40;20.90;99.90
18773;DHT22;9515;50.810;4.418;2022-07-21T03:14:06;20.90;99.90
18773;DHT22;9515;50.810;4.418;2022-07-21T03:16:32;20.90;99.90
18773;DHT22;9515;50.810;4.418;2022-07-21T03:18:57;20.60;99.90
18773;DHT22;9515;50.810;4.418;2022-07-21T03:21:23;20.70;99.90
18773;DHT22;9515;50.810;4.418;2022-07-21T03:23:49;20.70;99.90
18773;DHT22;9515;50.810;4.418;2022-07-21T03:26:15;20.70;99.90
18773;DHT22;9515;50.810;4.418;2022-07-21T03:28:42;20.80;99.90
18773;DHT22;9515;50.810;4.418;2022-07-21T03:31:08;20.60;99.90
18773;DHT22;9515;50.810;4.418;2022-07-21T03:33:34;20.80;99.90
18773;DHT22;9515;50.810;4.418;2022-07-21T03:36:00;20.70;99.90
18773;DHT22;9515;50.810;4.418;2022-07-21T03:38:26;20.80;99.90
18773;DHT22;9515;50.810;4.418;2022-07-21T03:40:52;20.90;99.90
18773;DHT22;9515;50.810;4.418;2022-07-21T03:43:18;20.80;99.90
18773;DHT22;9515;50.810;4.418;2022-07-21T03:45:44;20.70;99.90
18773;DHT22;9515;50.810;4.418;2022-07-21T03:48:10;20.80;99.90
18773;DHT22;9515;50.810;4.418;2022-07-21T03:50:37;20.70;99.90
18773;DHT22;9515;50.810;4.418;2022-07-21T03:53:04;20.70;99.90
18773;DHT22;9515;50.810;4.418;2022-07-21T03:55:30;20.60;99.90
18773;DHT22;9515;50.810;4.418;2022-07-21T03:58:00;20.80;99.90
18773;DHT22;9515;50.810;4.418;2022-07-21T04:03:00;21.00;99.90
18773;DHT22;9515;50.810;4.418;2022-07-21T04:05:26;21.00;99.90
18773;DHT22;9515;50.810;4.418;2022-07-21T04:07:53;21.10;99.90
18773;DHT22;9515;50.810;4.418;2022-07-21T04:10:21;21.10;99.90
18773;DHT22;9515;50.810;4.418;2022-07-21T04:12:48;21.20;99.90
18773;DHT22;9515;50.810;4.418;2022-07-21T04:15:14;21.30;99.90
18773;DHT22;9515;50.810;4.418;2022-07-21T04:17:40;21.30;99.90
18773;DHT22;9515;50.810;4.418;2022-07-21T04:20:07;21.30;99.90
18773;DHT22;9515;50.810;4.418;2022-07-21T04:22:33;21.40;99.90
18773;DHT22;9515;50.810;4.418;2022-07-21T04:24:59;21.50;99.90
18773;DHT22;9515;50.810;4.418;2022-07-21T04:27:26;21.30;99.90
18773;DHT22;9515;50.810;4.418;2022-07-21T04:29:51;21.40;99.90
18773;DHT22;9515;50.810;4.418;2022-07-21T04:32:17;21.40;99.90
18773;DHT22;9515;50.810;4.418;2022-07-21T04:34:43;21.30;99.90
18773;DHT22;9515;50.810;4.418;2022-07-21T04:37:08;21.30;99.90
18773;DHT22;9515;50.810;4.418;2022-07-21T04:39:34;21.40;99.90
18773;DHT22;9515;50.810;4.418;2022-07-21T04:42:00;21.50;99.90
18773;DHT22;9515;50.810;4.418;2022-07-21T04:44:25;21.30;99.90
18773;DHT22;9515;50.810;4.418;2022-07-21T04:46:51;21.40;99.90
18773;DHT22;9515;50.810;4.418;2022-07-21T04:49:17;21.50;99.90
18773;DHT22;9515;50.810;4.418;2022-07-21T04:51:43;21.50;99.90
18773;DHT22;9515;50.810;4.418;2022-07-21T04:54:09;21.50;99.90
18773;DHT22;9515;50.810;4.418;2022-07-21T04:56:42;21.60;99.90
18773;DHT22;9515;50.810;4.418;2022-07-21T04:59:08;21.40;99.90
18773;DHT22;9515;50.810;4.418;2022-07-21T05:01:34;21.50;99.90
18773;DHT22;9515;50.810;4.418;2022-07-21T05:04:00;21.40;99.90
18773;DHT22;9515;50.810;4.418;2022-07-21T05:06:26;21.50;99.90
18773;DHT22;9515;50.810;4.418;2022-07-21T05:08:51;21.60;99.90
18773;DHT22;9515;50.810;4.418;2022-07-21T05:11:17;21.60;99.90
18773;DHT22;9515;50.810;4.418;2022-07-21T05:13:43;21.50;99.90
18773;DHT22;9515;50.810;4.418;2022-07-21T05:16:08;21.70;99.90
18773;DHT22;9515;50.810;4.418;2022-07-21T05:18:34;21.30;99.90
18773;DHT22;9515;50.810;4.418;2022-07-21T05:21:00;21.20;99.90
18773;DHT22;9515;50.810;4.418;2022-07-21T05:23:25;21.00;99.90
18773;DHT22;9515;50.810;4.418;2022-07-21T05:25:51;21.00;99.90
18773;DHT22;9515;50.810;4.418;2022-07-21T05:28:17;20.90;99.90
18773;DHT22;9515;50.810;4.418;2022-07-21T05:30:42;20.90;99.90
18773;DHT22;9515;50.810;4.418;2022-07-21T05:33:08;20.80;99.90
18773;DHT22;9515;50.810;4.418;2022-07-21T05:35:34;20.80;99.90
18773;DHT22;9515;50.810;4.418;2022-07-21T05:38:00;20.80;99.90
18773;DHT22;9515;50.810;4.418;2022-07-21T05:40:25;20.70;99.90
18773;DHT22;9515;50.810;4.418;2022-07-21T05:42:51;20.60;99.90
18773;DHT22;9515;50.810;4.418;2022-07-21T05:45:17;20.70;99.90
18773;DHT22;9515;50.810;4.418;2022-07-21T05:47:43;20.80;99.90
18773;DHT22;9515;50.810;4.418;2022-07-21T05:50:10;20.90;99.90
18773;DHT22;9515;50.810;4.418;2022-07-21T05:52:36;20.80;99.90
18773;DHT22;9515;50.810;4.418;2022-07-21T05:55:02;20.70;99.90
18773;DHT22;9515;50.810;4.418;2022-07-21T05:57:28;20.90;99.90
18773;DHT22;9515;50.810;4.418;2022-07-21T05:59:54;20.90;99.90
18773;DHT22;9515;50.810;4.418;2022-07-21T06:02:19;20.80;99.90
18773;DHT22;9515;50.810;4.418;2022-07-21T06:04:45;20.90;99.90
18773;DHT22;9515;50.810;4.418;2022-07-21T06:07:11;20.80;99.90
18773;DHT22;9515;50.810;4.418;2022-07-21T06:09:36;20.60;99.90
18773;DHT22;9515;50.810;4.418;2022-07-21T06:12:02;20.60;99.90
18773;DHT22;9515;50.810;4.418;2022-07-21T06:14:28;20.40;99.90
18773;DHT22;9515;50.810;4.418;2022-07-21T06:16:54;20.40;99.90
18773;DHT22;9515;50.810;4.418;2022-07-21T06:19:20;20.50;99.90
18773;DHT22;9515;50.810;4.418;2022-07-21T06:21:46;20.50;99.90
18773;DHT22;9515;50.810;4.418;2022-07-21T06:24:11;20.50;99.90
18773;DHT22;9515;50.810;4.418;2022-07-21T06:26:37;20.60;99.90
18773;DHT22;9515;50.810;4.418;2022-07-21T06:29:04;20.50;99.90
18773;DHT22;9515;50.810;4.418;2022-07-21T06:31:31;20.70;99.90
18773;DHT22;9515;50.810;4.418;2022-07-21T06:33:57;20.70;99.90
18773;DHT22;9515;50.810;4.418;2022-07-21T06:36:23;20.70;99.90
18773;DHT22;9515;50.810;4.418;2022-07-21T06:38:48;20.50;99.90
18773;DHT22;9515;50.810;4.418;2022-07-21T06:41:14;20.60;99.90
18773;DHT22;9515;50.810;4.418;2022-07-21T06:43:39;20.50;99.90
18773;DHT22;9515;50.810;4.418;2022-07-21T06:46:05;20.70;99.90
18773;DHT22;9515;50.810;4.418;2022-07-21T06:48:31;20.40;99.90
18773;DHT22;9515;50.810;4.418;2022-07-21T06:50:57;20.50;99.90
18773;DHT22;9515;50.810;4.418;2022-07-21T06:53:23;20.40;99.90
18773;DHT22;9515;50.810;4.418;2022-07-21T06:55:49;20.40;99.90
18773;DHT22;9515;50.810;4.418;2022-07-21T06:58:22;20.40;99.90
18773;DHT22;9515;50.810;4.418;2022-07-21T07:00:48;20.60;99.90
18773;DHT22;9515;50.810;4.418;2022-07-21T07:03:15;20.50;99.90
18773;DHT22;9515;50.810;4.418;2022-07-21T07:05:41;20.40;99.90
18773;DHT22;9515;50.810;4.418;2022-07-21T07:08:07;20.30;99.90
18773;DHT22;9515;50.810;4.418;2022-07-21T07:10:33;20.30;99.90
18773;DHT22;9515;50.810;4.418;2022-07-21T07:12:59;20.40;99.90
18773;DHT22;9515;50.810;4.418;2022-07-21T07:15:26;20.50;99.90
18773;DHT22;9515;50.810;4.418;2022-07-21T07:17:52;20.50;99.90
18773;DHT22;9515;50.810;4.418;2022-07-21T07:20:18;20.50;99.90
18773;DHT22;9515;50.810;4.418;2022-07-21T07:22:43;20.60;99.90
18773;DHT22;9515;50.810;4.418;2022-07-21T07:25:09;20.40;99.90
18773;DHT22;9515;50.810;4.418;2022-07-21T07:28:01;20.50;99.90
18773;DHT22;9515;50.810;4.418;2022-07-21T07:30:27;20.40;99.90
18773;DHT22;9515;50.810;4.418;2022-07-21T07:32:53;20.50;99.90
18773;DHT22;9515;50.810;4.418;2022-07-21T07:35:19;20.20;99.90
18773;DHT22;9515;50.810;4.418;2022-07-21T07:37:45;20.40;99.90
18773;DHT22;9515;50.810;4.418;2022-07-21T07:40:18;20.60;99.90
18773;DHT22;9515;50.810;4.418;2022-07-21T07:42:45;20.60;99.90
18773;DHT22;9515;50.810;4.418;2022-07-21T07:45:11;20.80;99.90
18773;DHT22;9515;50.810;4.418;2022-07-21T07:47:38;20.60;99.90
18773;DHT22;9515;50.810;4.418;2022-07-21T07:50:06;20.20;99.90
18773;DHT22;9515;50.810;4.418;2022-07-21T07:52:34;20.50;99.90
18773;DHT22;9515;50.810;4.418;2022-07-21T07:54:59;20.60;99.90
18773;DHT22;9515;50.810;4.418;2022-07-21T07:57:29;20.50;99.90
18773;DHT22;9515;50.810;4.418;2022-07-21T07:59:54;20.70;99.90
18773;DHT22;9515;50.810;4.418;2022-07-21T08:02:20;20.90;99.90
18773;DHT22;9515;50.810;4.418;2022-07-21T08:04:46;20.80;99.90
18773;DHT22;9515;50.810;4.418;2022-07-21T08:07:11;20.90;99.90
18773;DHT22;9515;50.810;4.418;2022-07-21T08:09:39;20.80;99.90
18773;DHT22;9515;50.810;4.418;2022-07-21T08:12:05;20.90;99.90
18773;DHT22;9515;50.810;4.418;2022-07-21T08:14:30;20.80;99.90
18773;DHT22;9515;50.810;4.418;2022-07-21T08:16:56;21.00;99.90
18773;DHT22;9515;50.810;4.418;2022-07-21T08:19:24;20.90;99.90
18773;DHT22;9515;50.810;4.418;2022-07-21T08:21:51;20.70;99.90
18773;DHT22;9515;50.810;4.418;2022-07-21T08:24:17;20.70;99.90
18773;DHT22;9515;50.810;4.418;2022-07-21T08:26:42;20.80;99.90
18773;DHT22;9515;50.810;4.418;2022-07-21T08:29:10;20.90;99.90
18773;DHT22;9515;50.810;4.418;2022-07-21T08:31:35;21.10;99.90
18773;DHT22;9515;50.810;4.418;2022-07-21T08:34:01;21.10;99.90
18773;DHT22;9515;50.810;4.418;2022-07-21T08:36:27;20.90;99.90
18773;DHT22;9515;50.810;4.418;2022-07-21T08:38:52;20.90;99.90
18773;DHT22;9515;50.810;4.418;2022-07-21T08:41:18;21.10;99.90
18773;DHT22;9515;50.810;4.418;2022-07-21T08:43:44;21.20;99.90
18773;DHT22;9515;50.810;4.418;2022-07-21T08:46:09;21.10;99.90
18773;DHT22;9515;50.810;4.418;2022-07-21T08:48:36;21.20;99.90
18773;DHT22;9515;50.810;4.418;2022-07-21T08:51:02;21.30;99.90
18773;DHT22;9515;50.810;4.418;2022-07-21T08:53:28;21.40;99.90
18773;DHT22;9515;50.810;4.418;2022-07-21T08:55:54;21.20;99.90
18773;DHT22;9515;50.810;4.418;2022-07-21T08:58:20;21.30;99.90
18773;DHT22;9515;50.810;4.418;2022-07-21T09:00:48;21.40;99.90
18773;DHT22;9515;50.810;4.418;2022-07-21T09:03:26;21.40;99.90
18773;DHT22;9515;50.810;4.418;2022-07-21T09:06:11;21.50;99.90
18773;DHT22;9515;50.810;4.418;2022-07-21T09:08:38;21.60;99.90
18773;DHT22;9515;50.810;4.418;2022-07-21T09:13:36;21.20;99.90
18773;DHT22;9515;50.810;4.418;2022-07-21T09:16:02;21.40;99.90
18773;DHT22;9515;50.810;4.418;2022-07-21T09:18:28;21.50;99.90
18773;DHT22;9515;50.810;4.418;2022-07-21T09:20:53;21.60;99.90
18773;DHT22;9515;50.810;4.418;2022-07-21T09:23:22;21.70;99.90
18773;DHT22;9515;50.810;4.418;2022-07-21T09:25:50;21.50;99.90
18773;DHT22;9515;50.810;4.418;2022-07-21T09:28:27;21.70;99.90
18773;DHT22;9515;50.810;4.418;2022-07-21T09:31:03;21.60;99.90
18773;DHT22;9515;50.810;4.418;2022-07-21T09:33:42;21.30;99.90
18773;DHT22;9515;50.810;4.418;2022-07-21T09:36:11;21.40;99.90
18773;DHT22;9515;50.810;4.418;2022-07-21T09:38:39;21.10;99.90
18773;DHT22;9515;50.810;4.418;2022-07-21T09:41:11;21.10;99.90
18773;DHT22;9515;50.810;4.418;2022-07-21T09:43:41;21.20;99.90
18773;DHT22;9515;50.810;4.418;2022-07-21T09:46:31;21.20;99.90
18773;DHT22;9515;50.810;4.418;2022-07-21T09:48:59;21.20;99.90
18773;DHT22;9515;50.810;4.418;2022-07-21T09:51:32;21.30;99.90
18773;DHT22;9515;50.810;4.418;2022-07-21T09:54:07;21.50;99.90
18773;DHT22;9515;50.810;4.418;2022-07-21T09:56:35;21.30;99.90
18773;DHT22;9515;50.810;4.418;2022-07-21T09:59:02;21.60;99.90
18773;DHT22;9515;50.810;4.418;2022-07-21T10:01:29;21.60;99.90
18773;DHT22;9515;50.810;4.418;2022-07-21T10:03:57;21.70;99.90
18773;DHT22;9515;50.810;4.418;2022-07-21T10:06:31;21.70;99.90
18773;DHT22;9515;50.810;4.418;2022-07-21T10:08:58;21.90;99.90
18773;DHT22;9515;50.810;4.418;2022-07-21T10:11:25;21.80;99.90
18773;DHT22;9515;50.810;4.418;2022-07-21T10:13:51;21.70;99.90
18773;DHT22;9515;50.810;4.418;2022-07-21T10:16:18;21.80;99.90
18773;DHT22;9515;50.810;4.418;2022-07-21T10:18:54;21.80;99.90
18773;DHT22;9515;50.810;4.418;2022-07-21T10:21:46;21.60;99.90
18773;DHT22;9515;50.810;4.418;2022-07-21T10:24:15;21.50;99.90
18773;DHT22;9515;50.810;4.418;2022-07-21T10:27:10;21.40;99.90
18773;DHT22;9515;50.810;4.418;2022-07-21T10:29:49;21.40;99.90
18773;DHT22;9515;50.810;4.418;2022-07-21T10:32:20;21.30;99.90
18773;DHT22;9515;50.810;4.418;2022-07-21T10:34:46;21.50;99.90
18773;DHT22;9515;50.810;4.418;2022-07-21T10:42:32;21.40;99.90
18773;DHT22;9515;50.810;4.418;2022-07-21T10:44:58;21.40;99.90
18773;DHT22;9515;50.810;4.418;2022-07-21T10:47:24;21.50;99.90
18773;DHT22;9515;50.810;4.418;2022-07-21T10:50:00;21.60;99.90
18773;DHT22;9515;50.810;4.418;2022-07-21T10:55:22;22.00;99.90
18773;DHT22;9515;50.810;4.418;2022-07-21T11:00:50;22.60;99.90
18773;DHT22;9515;50.810;4.418;2022-07-21T11:03:30;22.60;99.90
18773;DHT22;9515;50.810;4.418;2022-07-21T11:08:35;22.60;99.90
18773;DHT22;9515;50.810;4.418;2022-07-21T11:11:10;22.40;99.90
18773;DHT22;9515;50.810;4.418;2022-07-21T11:14:11;22.20;99.90
18773;DHT22;9515;50.810;4.418;2022-07-21T11:22:15;22.70;99.90
18773;DHT22;9515;50.810;4.418;2022-07-21T11:24:44;22.90;99.90
18773;DHT22;9515;50.810;4.418;2022-07-21T11:27:13;22.90;99.90
18773;DHT22;9515;50.810;4.418;2022-07-21T11:29:42;23.10;99.90
18773;DHT22;9515;50.810;4.418;2022-07-21T11:32:09;23.20;99.90
18773;DHT22;9515;50.810;4.418;2022-07-21T11:37:03;23.10;99.90
18773;DHT22;9515;50.810;4.418;2022-07-21T11:39:29;23.10;99.90
18773;DHT22;9515;50.810;4.418;2022-07-21T11:42:00;23.30;99.90
18773;DHT22;9515;50.810;4.418;2022-07-21T11:44:27;23.30;99.90
18773;DHT22;9515;50.810;4.418;2022-07-21T11:46:56;23.50;99.90
18773;DHT22;9515;50.810;4.418;2022-07-21T11:49:23;23.60;99.90
18773;DHT22;9515;50.810;4.418;2022-07-21T11:52:13;23.70;99.90
18773;DHT22;9515;50.810;4.418;2022-07-21T11:54:53;23.80;99.90
18773;DHT22;9515;50.810;4.418;2022-07-21T11:57:21;23.40;99.90
18773;DHT22;9515;50.810;4.418;2022-07-21T11:59:48;23.40;99.90
18773;DHT22;9515;50.810;4.418;2022-07-21T12:02:30;22.90;99.90
18773;DHT22;9515;50.810;4.418;2022-07-21T12:04:59;22.70;99.90
18773;DHT22;9515;50.810;4.418;2022-07-21T12:10:08;23.00;99.90
18773;DHT22;9515;50.810;4.418;2022-07-21T12:12:42;22.60;99.90
18773;DHT22;9515;50.810;4.418;2022-07-21T12:15:19;22.60;99.90
18773;DHT22;9515;50.810;4.418;2022-07-21T12:17:54;22.90;99.90
18773;DHT22;9515;50.810;4.418;2022-07-21T12:22:57;22.90;99.90
18773;DHT22;9515;50.810;4.418;2022-07-21T12:28:00;22.70;99.90
18773;DHT22;9515;50.810;4.418;2022-07-21T12:30:36;22.80;99.90
18773;DHT22;9515;50.810;4.418;2022-07-21T12:33:10;22.90;99.90
18773;DHT22;9515;50.810;4.418;2022-07-21T12:35:39;23.10;99.90
18773;DHT22;9515;50.810;4.418;2022-07-21T12:38:13;23.50;99.90
18773;DHT22;9515;50.810;4.418;2022-07-21T12:40:45;23.80;99.90
18773;DHT22;9515;50.810;4.418;2022-07-21T12:43:16;24.00;99.90
18773;DHT22;9515;50.810;4.418;2022-07-21T12:45:46;24.00;99.90
18773;DHT22;9515;50.810;4.418;2022-07-21T12:48:16;23.70;99.90
18773;DHT22;9515;50.810;4.418;2022-07-21T12:50:42;23.70;99.90
18773;DHT22;9515;50.810;4.418;2022-07-21T12:53:21;23.60;99.90
18773;DHT22;9515;50.810;4.418;2022-07-21T12:55:46;23.40;99.90
18773;DHT22;9515;50.810;4.418;2022-07-21T12:58:12;23.30;99.90
18773;DHT22;9515;50.810;4.418;2022-07-21T13:00:38;23.20;99.90
18773;DHT22;9515;50.810;4.418;2022-07-21T13:03:03;23.10;99.90
18773;DHT22;9515;50.810;4.418;2022-07-21T13:05:29;23.30;99.90
18773;DHT22;9515;50.810;4.418;2022-07-21T13:07:55;23.40;99.90
18773;DHT22;9515;50.810;4.418;2022-07-21T13:10:21;23.70;99.90
18773;DHT22;9515;50.810;4.418;2022-07-21T13:12:46;24.00;99.90
18773;DHT22;9515;50.810;4.418;2022-07-21T13:15:13;24.10;99.90
18773;DHT22;9515;50.810;4.418;2022-07-21T13:17:39;24.10;99.90
18773;DHT22;9515;50.810;4.418;2022-07-21T13:20:05;24.10;99.90
18773;DHT22;9515;50.810;4.418;2022-07-21T13:22:31;24.30;99.90
18773;DHT22;9515;50.810;4.418;2022-07-21T13:24:57;24.40;99.90
18773;DHT22;9515;50.810;4.418;2022-07-21T13:27:22;24.50;99.90
18773;DHT22;9515;50.810;4.418;2022-07-21T13:29:48;24.60;99.90
18773;DHT22;9515;50.810;4.418;2022-07-21T13:32:14;24.70;99.90
18773;DHT22;9515;50.810;4.418;2022-07-21T13:34:40;24.90;99.90
18773;DHT22;9515;50.810;4.418;2022-07-21T13:37:06;24.90;99.90
18773;DHT22;9515;50.810;4.418;2022-07-21T13:39:39;25.30;99.90
18773;DHT22;9515;50.810;4.418;2022-07-21T13:42:07;25.60;99.90
18773;DHT22;9515;50.810;4.418;2022-07-21T13:44:34;25.50;99.90
18773;DHT22;9515;50.810;4.418;2022-07-21T13:46:59;25.30;99.90
18773;DHT22;9515;50.810;4.418;2022-07-21T13:49:25;25.30;99.90
18773;DHT22;9515;50.810;4.418;2022-07-21T13:51:51;25.40;99.90
18773;DHT22;9515;50.810;4.418;2022-07-21T13:54:17;25.40;99.90
18773;DHT22;9515;50.810;4.418;2022-07-21T13:56:43;25.50;99.90
18773;DHT22;9515;50.810;4.418;2022-07-21T13:59:09;24.90;99.90
18773;DHT22;9515;50.810;4.418;2022-07-21T14:01:34;25.10;99.90
18773;DHT22;9515;50.810;4.418;2022-07-21T14:04:00;25.00;99.90
18773;DHT22;9515;50.810;4.418;2022-07-21T14:06:26;25.00;99.90
18773;DHT22;9515;50.810;4.418;2022-07-21T14:08:51;25.00;99.90
18773;DHT22;9515;50.810;4.418;2022-07-21T14:11:17;25.20;99.90
18773;DHT22;9515;50.810;4.418;2022-07-21T14:13:43;25.40;99.90
18773;DHT22;9515;50.810;4.418;2022-07-21T14:16:09;25.40;99.90
18773;DHT22;9515;50.810;4.418;2022-07-21T14:18:35;25.60;99.90
18773;DHT22;9515;50.810;4.418;2022-07-21T14:21:02;26.20;99.90
18773;DHT22;9515;50.810;4.418;2022-07-21T14:23:27;26.80;99.90
18773;DHT22;9515;50.810;4.418;2022-07-21T14:25:53;27.10;99.90
18773;DHT22;9515;50.810;4.418;2022-07-21T14:28:20;27.20;99.90
18773;DHT22;9515;50.810;4.418;2022-07-21T14:30:46;27.00;99.90
18773;DHT22;9515;50.810;4.418;2022-07-21T14:33:12;26.70;99.90
18773;DHT22;9515;50.810;4.418;2022-07-21T14:35:37;26.20;99.90
18773;DHT22;9515;50.810;4.418;2022-07-21T14:38:03;26.10;99.90
18773;DHT22;9515;50.810;4.418;2022-07-21T14:40:29;25.80;99.90
18773;DHT22;9515;50.810;4.418;2022-07-21T14:42:54;25.70;99.90
18773;DHT22;9515;50.810;4.418;2022-07-21T14:45:22;25.80;99.90
18773;DHT22;9515;50.810;4.418;2022-07-21T14:47:49;25.70;99.90
18773;DHT22;9515;50.810;4.418;2022-07-21T14:50:16;25.20;99.90
18773;DHT22;9515;50.810;4.418;2022-07-21T14:52:42;24.90;99.90
18773;DHT22;9515;50.810;4.418;2022-07-21T14:55:09;25.20;99.90
18773;DHT22;9515;50.810;4.418;2022-07-21T14:57:35;25.20;99.90
18773;DHT22;9515;50.810;4.418;2022-07-21T15:00:03;25.10;99.90
18773;DHT22;9515;50.810;4.418;2022-07-21T15:02:29;25.00;99.90
18773;DHT22;9515;50.810;4.418;2022-07-21T15:04:55;25.00;99.90
18773;DHT22;9515;50.810;4.418;2022-07-21T15:07:20;25.00;99.90
18773;DHT22;9515;50.810;4.418;2022-07-21T15:09:46;24.90;99.90
18773;DHT22;9515;50.810;4.418;2022-07-21T15:12:12;25.20;99.90
18773;DHT22;9515;50.810;4.418;2022-07-21T15:14:38;25.10;99.90
18773;DHT22;9515;50.810;4.418;2022-07-21T15:17:04;25.00;99.90
18773;DHT22;9515;50.810;4.418;2022-07-21T15:19:30;25.10;99.90
18773;DHT22;9515;50.810;4.418;2022-07-21T15:21:56;25.20;99.90
18773;DHT22;9515;50.810;4.418;2022-07-21T15:24:22;25.40;99.90
18773;DHT22;9515;50.810;4.418;2022-07-21T15:26:47;25.60;99.90
18773;DHT22;9515;50.810;4.418;2022-07-21T15:29:13;25.80;99.90
18773;DHT22;9515;50.810;4.418;2022-07-21T15:31:39;25.60;99.90
18773;DHT22;9515;50.810;4.418;2022-07-21T15:34:05;25.30;99.90
18773;DHT22;9515;50.810;4.418;2022-07-21T15:36:30;25.20;99.90
18773;DHT22;9515;50.810;4.418;2022-07-21T15:38:57;25.00;99.90
18773;DHT22;9515;50.810;4.418;2022-07-21T15:41:24;24.90;99.90
18773;DHT22;9515;50.810;4.418;2022-07-21T15:43:50;24.80;99.90
18773;DHT22;9515;50.810;4.418;2022-07-21T15:46:15;24.40;99.90
18773;DHT22;9515;50.810;4.418;2022-07-21T15:48:41;24.40;99.90
18773;DHT22;9515;50.810;4.418;2022-07-21T15:51:07;24.30;99.90
18773;DHT22;9515;50.810;4.418;2022-07-21T15:53:34;24.10;99.90
18773;DHT22;9515;50.810;4.418;2022-07-21T15:56:05;24.10;99.90
18773;DHT22;9515;50.810;4.418;2022-07-21T15:58:31;24.40;99.90
18773;DHT22;9515;50.810;4.418;2022-07-21T16:00:58;24.60;99.90
18773;DHT22;9515;50.810;4.418;2022-07-21T16:03:24;24.80;99.90
18773;DHT22;9515;50.810;4.418;2022-07-21T16:05:50;25.10;99.90
18773;DHT22;9515;50.810;4.418;2022-07-21T16:08:16;25.30;99.90
18773;DHT22;9515;50.810;4.418;2022-07-21T16:10:42;25.30;99.90
18773;DHT22;9515;50.810;4.418;2022-07-21T16:13:08;25.30;99.90
18773;DHT22;9515;50.810;4.418;2022-07-21T16:15:34;25.20;99.90
18773;DHT22;9515;50.810;4.418;2022-07-21T16:17:59;24.90;99.90
18773;DHT22;9515;50.810;4.418;2022-07-21T16:20:25;24.50;99.90